Map

Track Data

SID SEASON NUMBER BASIN SUBBASIN NAME ISO_TIME NATURE LAT LON WMO_WIND WMO_PRES WMO_AGENCY TRACK_TYPE DIST2LAND LANDFALL IFLAG USA_AGENCY USA_ATCF_ID USA_LAT USA_LON USA_RECORD USA_STATUS USA_WIND USA_PRES USA_SSHS USA_R34_NE USA_R34_SE USA_R34_SW USA_R34_NW USA_R50_NE USA_R50_SE USA_R50_SW USA_R50_NW USA_R64_NE USA_R64_SE USA_R64_SW USA_R64_NW USA_POCI USA_ROCI USA_RMW USA_EYE TOKYO_LAT TOKYO_LON TOKYO_GRADE TOKYO_WIND TOKYO_PRES TOKYO_R50_DIR TOKYO_R50_LONG TOKYO_R50_SHORT TOKYO_R30_DIR TOKYO_R30_LONG TOKYO_R30_SHORT TOKYO_LAND CMA_LAT CMA_LON CMA_CAT CMA_WIND CMA_PRES HKO_LAT HKO_LON HKO_CAT HKO_WIND HKO_PRES NEWDELHI_LAT NEWDELHI_LON NEWDELHI_GRADE NEWDELHI_WIND NEWDELHI_PRES NEWDELHI_CI NEWDELHI_DP NEWDELHI_POCI REUNION_LAT REUNION_LON REUNION_TYPE REUNION_WIND REUNION_PRES REUNION_TNUM REUNION_CI REUNION_RMW REUNION_R34_NE REUNION_R34_SE REUNION_R34_SW REUNION_R34_NW REUNION_R50_NE REUNION_R50_SE REUNION_R50_SW REUNION_R50_NW REUNION_R64_NE REUNION_R64_SE REUNION_R64_SW REUNION_R64_NW BOM_LAT BOM_LON BOM_TYPE BOM_WIND BOM_PRES BOM_TNUM BOM_CI BOM_RMW BOM_R34_NE BOM_R34_SE BOM_R34_SW BOM_R34_NW BOM_R50_NE BOM_R50_SE BOM_R50_SW BOM_R50_NW BOM_R64_NE BOM_R64_SE BOM_R64_SW BOM_R64_NW BOM_ROCI BOM_POCI BOM_EYE BOM_POS_METHOD BOM_PRES_METHOD NADI_LAT NADI_LON NADI_CAT NADI_WIND NADI_PRES WELLINGTON_LAT WELLINGTON_LON WELLINGTON_WIND WELLINGTON_PRES DS824_LAT DS824_LON DS824_STAGE DS824_WIND DS824_PRES TD9636_LAT TD9636_LON TD9636_STAGE TD9636_WIND TD9636_PRES TD9635_LAT TD9635_LON TD9635_WIND TD9635_PRES TD9635_ROCI NEUMANN_LAT NEUMANN_LON NEUMANN_CLASS NEUMANN_WIND NEUMANN_PRES MLC_LAT MLC_LON MLC_CLASS MLC_WIND MLC_PRES USA_GUST BOM_GUST BOM_GUST_PER REUNION_GUST REUNION_GUST_PER USA_SEAHGT USA_SEARAD_NE USA_SEARAD_SE USA_SEARAD_SW USA_SEARAD_NW STORM_SPEED STORM_DIR
1911143N09070 1911 35 NI AS NOT_NAMED 1911-05-23 00:00:00 TS 8.70000 70.3000 main 651 651 _________O____ -1 8.70000 70.3000 TC 64 7 286
1911143N09070 1911 35 NI AS NOT_NAMED 1911-05-23 03:00:00 TS 8.79340 69.9700 main 672 672 _________PO___ -1 8.84010 69.8050 TC 64 8.70000 70.3000 4 8 287
1911143N09070 1911 35 NI AS NOT_NAMED 1911-05-23 06:00:00 TS 8.94903 69.4877 main 713 708 _________OP___ -1 9.00000 69.3000 TC 64 8.87257 69.7692 4 10 289
1911143N09070 1911 35 NI AS NOT_NAMED 1911-05-23 09:00:00 TS 9.12962 68.9845 main 751 751 _________PP___ -1 9.19249 68.7850 TC 64 9.04579 69.2505 4 10 291
1911143N09070 1911 35 NI AS NOT_NAMED 1911-05-23 12:00:00 TS 9.31055 68.5283 main 790 790 _________OP___ -1 9.40000 68.3000 TC 64 9.22110 68.7565 4 10 293
1911143N09070 1911 35 NI AS NOT_NAMED 1911-05-23 15:00:00 TS 9.49996 68.0887 main 819 819 _________PO___ -1 9.59992 67.8774 TC 64 9.40000 68.3000 4 9 295
1911143N09070 1911 35 NI AS NOT_NAMED 1911-05-23 18:00:00 TS 9.69217 67.6944 main 848 848 _________OP___ -1 9.80000 67.5000 TC 64 9.58435 67.8888 4 8 297
1911143N09070 1911 35 NI AS NOT_NAMED 1911-05-23 21:00:00 TS 9.88474 67.3310 main 880 880 _________PP___ -1 9.99241 67.1499 TC 64 9.77706 67.5122 4 8 299
1911143N09070 1911 35 NI AS NOT_NAMED 1911-05-24 00:00:00 TS 10.0906 66.9772 main 902 902 _________OP___ -1 10.2000 66.8000 TC 64 9.98127 67.1544 4 8 301
1911143N09070 1911 35 NI AS NOT_NAMED 1911-05-24 03:00:00 TS 10.3213 66.6000 main 936 936 _________PO___ -1 10.4425 66.4000 TC 64 10.2000 66.8000 4 9 302
1911143N09070 1911 35 NI AS NOT_NAMED 1911-05-24 06:00:00 TS 10.5698 66.2044 main 968 968 _________OP___ -1 10.7000 66.0000 TC 64 10.4397 66.4088 4 9 304
1911143N09070 1911 35 NI AS NOT_NAMED 1911-05-24 09:00:00 TS 10.8250 65.8275 main 1001 995 _________PP___ -1 10.9575 65.6350 TC 64 10.6925 66.0201 4 9 305
1911143N09070 1911 35 NI AS NOT_NAMED 1911-05-24 12:00:00 TS 11.0745 65.4732 main 1014 1014 _________OP___ -1 11.2000 65.3000 TC 64 10.9491 65.6463 4 8 305
1911143N09070 1911 35 NI AS NOT_NAMED 1911-05-24 15:00:00 TS 11.3000 65.1425 main 1043 1038 _________PO___ -1 11.4000 64.9849 TC 64 11.2000 65.3000 4 7 305
1911143N09070 1911 35 NI AS NOT_NAMED 1911-05-24 18:00:00 TS 11.4895 64.8638 main 1054 1054 _________OP___ -1 11.6000 64.7000 TC 64 11.3789 65.0277 4 6 307
1911143N09070 1911 35 NI AS NOT_NAMED 1911-05-24 21:00:00 TS 11.6783 64.6290 main 1075 1063 _________PP___ -1 11.7973 64.4796 TC 64 11.5593 64.7783 4 7 312
1911143N09070 1911 35 NI AS NOT_NAMED 1911-05-25 00:00:00 TS 11.9426 64.3574 main 1063 1001 _________OP___ -1 12.1000 64.2000 TC 64 11.7851 64.5149 4 9 316
1911143N09070 1911 35 NI AS NOT_NAMED 1911-05-25 03:00:00 TS 12.3526 63.9651 main 992 915 _________PO___ -1 12.6051 63.7302 TC 64 12.1000 64.2000 4 13 318
1911143N09070 1911 35 NI AS NOT_NAMED 1911-05-25 06:00:00 TS 12.8845 63.4896 main 915 837 _________OP___ -1 13.2000 63.2000 TC 64 12.5690 63.7791 4 14 320
1911143N09070 1911 35 NI AS NOT_NAMED 1911-05-25 09:00:00 TS 13.4414 63.0228 main 837 758 _________PP___ -1 13.7574 62.7423 TC 64 13.1254 63.3034 4 15 321
1911143N09070 1911 35 NI AS NOT_NAMED 1911-05-25 12:00:00 TS 14.0095 62.5504 main 758 680 _________OP___ -1 14.3000 62.3000 TC 64 13.7190 62.8008 4 15 321
1911143N09070 1911 35 NI AS NOT_NAMED 1911-05-25 15:00:00 TS 14.5575 62.0749 main 672 610 _________PO___ -1 14.8149 61.8498 TC 64 14.3000 62.3000 4 14 319
1911143N09070 1911 35 NI AS NOT_NAMED 1911-05-25 18:00:00 TS 15.0312 61.6422 main 603 532 _________OP___ -1 15.3000 61.4000 TC 64 14.8296 61.8239 4 13 318
1911143N09070 1911 35 NI AS NOT_NAMED 1911-05-25 21:00:00 TS 15.4906 61.2025 main 532 470 _________PP___ -1 15.7577 60.9504 TC 64 15.3126 61.3706 4 12 317
1911143N09070 1911 35 NI AS NOT_NAMED 1911-05-26 00:00:00 TS 15.9095 60.7880 main 470 424 _________OP___ -1 16.2000 60.5000 TC 64 15.7643 60.9320 4 10 316
1911143N09070 1911 35 NI AS NOT_NAMED 1911-05-26 03:00:00 NR 16.2000 60.5000 main 424 __________O___ -1 TC 16.2000 60.5000 4 8 316

About IBTrACS Database

This database is a web-friendly format of International Best Track Archive for Climate Stewardship (IBTrACS), a global best track data archive curated by NOAA dating back to 1842.

Updated: 2021-10-25